NOAA Web Site Link Tides and Currents Home Page Transparent placeholder image

PORTS® Data Listing: 8551910 Reedy Point, DE

CO-OPS RAW PORTS DATA

************************      PRELIMINARY DATA      ************************** 

     THIS RAW DATA HAS NOT BEEN SUBJECT TO THE NATIONAL OCEAN SERVICE'S        
     QUALITY CONTROL OR QUALITY ASSURANCE PROCEDURES AND DOES NOT MEET         
     THE CRITERIA AND STANDARDS OF OFFICIAL NATIONAL OCEAN SERVICE             
     DATA.  IT IS RELEASED FOR LIMITED PUBLIC USE AS PRELIMINARY DATA TO       
     BE USED ONLY WITH APPROPRIATE CAUTION.                                    

************************      PRELIMINARY DATA      ************************** 


       CD   -   Calendar date
       T    -   Time
       TZ   -   Timezone
       PW   -   Predicted water level (feet above MLLW)
       OW   -   Observed water level (feet above MLLW)
       WS   -   Wind speed (knots)
       WD   -   Wind direction (degrees true)
       WG   -   Wind gust (knots)
       AT   -   Air temperature (degrees farenheit)
       WT   -   Water temperature (degrees farenheit)
       AP   -   Air pressure (millibars)
       SA   -   Salinty (PSU - Practical Salinity Units)
       SG   -   Specific gravity
       RH   -   Relative humidity
       AG   -   Air gap (feet)
       VI   -   Visibility (nautical miles)

       ** NOTE **
       A variable that has its data fields filled with "9"s, indicates that
       data was not collected for that sample period.
       **********


STATION NAME: Reedy Point (8551910)
****************************************************************************************************
    CD       T    TZ    PW     OW    WS   WD   WG    AT    WT    AP    SA    SG     RH    AG   VI
****************************************************************************************************
2018/08/17 23:48 EDT    0.56   0.96 -999 -999 -999  79.9  81.9 1013.0 -9.9 -9.999 -99.9 -99.99 -9.99
2018/08/17 23:54 EDT    0.57   0.94 -999 -999 -999  79.5  81.9 1013.0 -9.9 -9.999 -99.9 -99.99 -9.99
2018/08/18 00:00 EDT    0.58   0.91 -999 -999 -999  79.3  81.9 1013.0 -9.9 -9.999 -99.9 -99.99 -9.99
2018/08/18 00:06 EDT    0.61   0.93 -999 -999 -999  79.2  81.9 1012.9 -9.9 -9.999 -99.9 -99.99 -9.99
2018/08/18 00:12 EDT    0.65   0.95 -999 -999 -999  79.0  81.9 1012.9 -9.9 -9.999 -99.9 -99.99 -9.99
2018/08/18 00:18 EDT    0.70   0.95 -999 -999 -999  78.8  81.9 1012.9 -9.9 -9.999 -99.9 -99.99 -9.99
2018/08/18 00:24 EDT    0.75   1.06 -999 -999 -999  78.6  81.9 1012.9 -9.9 -9.999 -99.9 -99.99 -9.99
2018/08/18 00:30 EDT    0.82   1.02 -999 -999 -999  78.6  81.9 1012.9 -9.9 -9.999 -99.9 -99.99 -9.99
2018/08/18 00:36 EDT    0.90   1.10 -999 -999 -999  78.6  81.9 1013.1 -9.9 -9.999 -99.9 -99.99 -9.99
2018/08/18 00:42 EDT    0.99   1.21 -999 -999 -999  79.5  81.9 1013.5 -9.9 -9.999 -99.9 -99.99 -9.99
2018/08/18 00:48 EDT    1.09   1.27 -999 -999 -999  79.7  81.9 1013.6 -9.9 -9.999 -99.9 -99.99 -9.99
2018/08/18 00:54 EDT    1.19   1.41 -999 -999 -999  79.3  81.9 1013.7 -9.9 -9.999 -99.9 -99.99 -9.99
2018/08/18 01:00 EDT    1.30   1.54 -999 -999 -999  78.6  81.9 1013.9 -9.9 -9.999 -99.9 -99.99 -9.99
2018/08/18 01:06 EDT    1.42   1.67 -999 -999 -999  77.7  81.9 1014.0 -9.9 -9.999 -99.9 -99.99 -9.99
2018/08/18 01:12 EDT    1.54   1.86 -999 -999 -999  76.6  81.9 1013.7 -9.9 -9.999 -99.9 -99.99 -9.99
2018/08/18 01:18 EDT    1.67   1.96 -999 -999 -999  75.9  81.9 1013.5 -9.9 -9.999 -99.9 -99.99 -9.99
2018/08/18 01:24 EDT    1.80   2.14 -999 -999 -999  75.7  82.0 1013.4 -9.9 -9.999 -99.9 -99.99 -9.99
2018/08/18 01:30 EDT    1.93   2.28 -999 -999 -999  75.6  82.0 1013.4 -9.9 -9.999 -99.9 -99.99 -9.99
2018/08/18 01:36 EDT    2.07   2.41 -999 -999 -999  75.6  82.0 1013.3 -9.9 -9.999 -99.9 -99.99 -9.99
2018/08/18 01:42 EDT    2.20   2.58 -999 -999 -999  75.6  82.0 1013.2 -9.9 -9.999 -99.9 -99.99 -9.99
2018/08/18 01:48 EDT    2.34   2.74 -999 -999 -999  75.4  82.0 1013.3 -9.9 -9.999 -99.9 -99.99 -9.99
2018/08/18 01:54 EDT    2.47   2.93 -999 -999 -999  75.6  82.0 1013.1 -9.9 -9.999 -99.9 -99.99 -9.99
2018/08/18 02:00 EDT    2.61   3.10 -999 -999 -999  75.6  82.0 1013.3 -9.9 -9.999 -99.9 -99.99 -9.99
2018/08/18 02:06 EDT    2.74   3.23 -999 -999 -999  75.6  82.0 1013.3 -9.9 -9.999 -99.9 -99.99 -9.99
2018/08/18 02:12 EDT    2.87   3.35 -999 -999 -999  75.4  82.0 1013.2 -9.9 -9.999 -99.9 -99.99 -9.99
2018/08/18 02:18 EDT    3.00   3.50 -999 -999 -999  75.2  82.0 1013.1 -9.9 -9.999 -99.9 -99.99 -9.99
2018/08/18 02:24 EDT    3.13   3.64 -999 -999 -999  75.0  82.2 1012.8 -9.9 -9.999 -99.9 -99.99 -9.99
2018/08/18 02:30 EDT    3.25   3.81 -999 -999 -999  75.0  82.2 1012.8 -9.9 -9.999 -99.9 -99.99 -9.99
2018/08/18 02:36 EDT    3.37   3.93 -999 -999 -999  74.8  82.2 1012.7 -9.9 -9.999 -99.9 -99.99 -9.99
2018/08/18 02:42 EDT    3.49   4.04 -999 -999 -999  75.0  82.2 1012.5 -9.9 -9.999 -99.9 -99.99 -9.99
2018/08/18 02:48 EDT    3.61   4.15 -999 -999 -999  74.8  82.4 1012.4 -9.9 -9.999 -99.9 -99.99 -9.99
2018/08/18 02:54 EDT    3.73   4.29 -999 -999 -999  74.7  82.4 1012.4 -9.9 -9.999 -99.9 -99.99 -9.99
2018/08/18 03:00 EDT    3.84   4.42 -999 -999 -999  74.3  82.4 1012.3 -9.9 -9.999 -99.9 -99.99 -9.99
2018/08/18 03:06 EDT    3.95   4.57 -999 -999 -999  74.1  82.4 1012.3 -9.9 -9.999 -99.9 -99.99 -9.99
2018/08/18 03:12 EDT    4.06   4.65 -999 -999 -999  73.9  82.4 1012.3 -9.9 -9.999 -99.9 -99.99 -9.99
2018/08/18 03:18 EDT    4.17   4.76 -999 -999 -999  73.8  82.6 1012.3 -9.9 -9.999 -99.9 -99.99 -9.99
2018/08/18 03:24 EDT    4.28   4.86 -999 -999 -999  73.6  82.6 1012.2 -9.9 -9.999 -99.9 -99.99 -9.99
2018/08/18 03:30 EDT    4.38   4.98 -999 -999 -999  73.6  82.6 1012.3 -9.9 -9.999 -99.9 -99.99 -9.99
2018/08/18 03:36 EDT    4.48   5.10 -999 -999 -999  73.4  82.6 1012.2 -9.9 -9.999 -99.9 -99.99 -9.99
2018/08/18 03:42 EDT    4.58   5.19 -999 -999 -999  73.4  82.6 1012.1 -9.9 -9.999 -99.9 -99.99 -9.99
2018/08/18 03:48 EDT    4.68   5.28 -999 -999 -999  73.4  82.6 1012.1 -9.9 -9.999 -99.9 -99.99 -9.99
2018/08/18 03:54 EDT    4.77   5.38 -999 -999 -999  73.4  82.6 1012.2 -9.9 -9.999 -99.9 -99.99 -9.99
2018/08/18 04:00 EDT    4.86   5.47 -999 -999 -999  73.4  82.6 1012.2 -9.9 -9.999 -99.9 -99.99 -9.99
2018/08/18 04:06 EDT    4.95   5.55 -999 -999 -999  73.8  82.8 1012.3 -9.9 -9.999 -99.9 -99.99 -9.99
2018/08/18 04:12 EDT    5.03   5.62 -999 -999 -999  74.1  82.8 1012.3 -9.9 -9.999 -99.9 -99.99 -9.99
2018/08/18 04:18 EDT    5.11   5.69 -999 -999 -999  74.1  82.8 1012.3 -9.9 -9.999 -99.9 -99.99 -9.99
2018/08/18 04:24 EDT    5.19   5.75 -999 -999 -999  74.1  82.8 1012.3 -9.9 -9.999 -99.9 -99.99 -9.99
2018/08/18 04:30 EDT    5.26   5.80 -999 -999 -999  74.1  82.8 1012.3 -9.9 -9.999 -99.9 -99.99 -9.99
2018/08/18 04:36 EDT    5.32   5.85 -999 -999 -999  74.1  82.8 1012.5 -9.9 -9.999 -99.9 -99.99 -9.99
2018/08/18 04:42 EDT    5.38   5.89 -999 -999 -999  74.1  82.8 1012.3 -9.9 -9.999 -99.9 -99.99 -9.99
2018/08/18 04:48 EDT    5.43   5.93 -999 -999 -999  74.7  82.9 1012.3 -9.9 -9.999 -99.9 -99.99 -9.99
2018/08/18 04:54 EDT    5.48   5.96 -999 -999 -999  74.7  82.8 1012.2 -9.9 -9.999 -99.9 -99.99 -9.99
2018/08/18 05:00 EDT    5.52   5.98 -999 -999 -999  74.7  82.9 1012.3 -9.9 -9.999 -99.9 -99.99 -9.99
2018/08/18 05:06 EDT    5.55   6.00 -999 -999 -999  74.7 -99.9 1012.2 -9.9 -9.999 -99.9 -99.99 -9.99
2018/08/18 05:12 EDT    5.57   6.01 -999 -999 -999  74.8  82.9 1012.2 -9.9 -9.999 -99.9 -99.99 -9.99
2018/08/18 05:18 EDT    5.59   6.02 -999 -999 -999  74.8  82.9 1012.1 -9.9 -9.999 -99.9 -99.99 -9.99
2018/08/18 05:24 EDT    5.59   6.01 -999 -999 -999  74.8  82.9 1011.9 -9.9 -9.999 -99.9 -99.99 -9.99
2018/08/18 05:30 EDT    5.59   6.01 -999 -999 -999  74.8  82.9 1011.8 -9.9 -9.999 -99.9 -99.99 -9.99
2018/08/18 05:36 EDT    5.58   5.99 -999 -999 -999  74.8  82.9 1011.9 -9.9 -9.999 -99.9 -99.99 -9.99
2018/08/18 05:42 EDT    5.56   5.97 -999 -999 -999  74.8  82.9 1011.9 -9.9 -9.999 -99.9 -99.99 -9.99
2018/08/18 05:48 EDT    5.54   5.93 -999 -999 -999  74.7  82.9 1011.8 -9.9 -9.999 -99.9 -99.99 -9.99
2018/08/18 05:54 EDT    5.50   5.88 -999 -999 -999  74.7  82.9 1011.8 -9.9 -9.999 -99.9 -99.99 -9.99
2018/08/18 06:00 EDT    5.46   5.83 -999 -999 -999  74.5  82.9 1011.8 -9.9 -9.999 -99.9 -99.99 -9.99
2018/08/18 06:06 EDT    5.41   5.77 -999 -999 -999  74.5  83.1 1011.7 -9.9 -9.999 -99.9 -99.99 -9.99
2018/08/18 06:12 EDT    5.36   5.72 -999 -999 -999  74.5  83.1 1011.6 -9.9 -9.999 -99.9 -99.99 -9.99
2018/08/18 06:18 EDT    5.29   5.65 -999 -999 -999  74.3  83.1 1011.6 -9.9 -9.999 -99.9 -99.99 -9.99
2018/08/18 06:24 EDT    5.22   5.57 -999 -999 -999  74.3  83.1 1011.7 -9.9 -9.999 -99.9 -99.99 -9.99
2018/08/18 06:30 EDT    5.15   5.48 -999 -999 -999  74.3  83.1 1011.7 -9.9 -9.999 -99.9 -99.99 -9.99
2018/08/18 06:36 EDT    5.07   5.36 -999 -999 -999  74.5  83.1 1011.8 -9.9 -9.999 -99.9 -99.99 -9.99
2018/08/18 06:42 EDT    4.98   5.30 -999 -999 -999  74.5  82.9 1011.8 -9.9 -9.999 -99.9 -99.99 -9.99
2018/08/18 06:48 EDT    4.89   5.18 -999 -999 -999  74.5  82.9 1011.8 -9.9 -9.999 -99.9 -99.99 -9.99
2018/08/18 06:54 EDT    4.79   5.06 -999 -999 -999  74.7  82.9 1011.8 -9.9 -9.999 -99.9 -99.99 -9.99
2018/08/18 07:00 EDT    4.69   4.97 -999 -999 -999  74.7  82.6 1011.8 -9.9 -9.999 -99.9 -99.99 -9.99
2018/08/18 07:06 EDT    4.59   4.83 -999 -999 -999  74.8  82.6 1011.9 -9.9 -9.999 -99.9 -99.99 -9.99
2018/08/18 07:12 EDT    4.49   4.71 -999 -999 -999  74.8  82.6 1011.9 -9.9 -9.999 -99.9 -99.99 -9.99
2018/08/18 07:18 EDT    4.38   4.63 -999 -999 -999  75.0  82.6 1012.0 -9.9 -9.999 -99.9 -99.99 -9.99
2018/08/18 07:24 EDT    4.27   4.49 -999 -999 -999  75.0  82.6 1012.1 -9.9 -9.999 -99.9 -99.99 -9.99
2018/08/18 07:30 EDT    4.15   4.38 -999 -999 -999  75.0  82.8 1012.1 -9.9 -9.999 -99.9 -99.99 -9.99
2018/08/18 07:36 EDT    4.04   4.26 -999 -999 -999  74.8  82.8 1012.0 -9.9 -9.999 -99.9 -99.99 -9.99
2018/08/18 07:42 EDT    3.92   4.11 -999 -999 -999  74.8  82.8 1011.9 -9.9 -9.999 -99.9 -99.99 -9.99
2018/08/18 07:48 EDT    3.81   4.01 -999 -999 -999  74.8  82.8 1011.8 -9.9 -9.999 -99.9 -99.99 -9.99
2018/08/18 07:54 EDT    3.69   3.87 -999 -999 -999  75.0  82.8 1011.7 -9.9 -9.999 -99.9 -99.99 -9.99
2018/08/18 08:00 EDT    3.57   3.76 -999 -999 -999  75.0  82.4 1011.7 -9.9 -9.999 -99.9 -99.99 -9.99
2018/08/18 08:06 EDT    3.46   3.63 -999 -999 -999  75.0  82.4 1011.7 -9.9 -9.999 -99.9 -99.99 -9.99
2018/08/18 08:12 EDT    3.34   3.51 -999 -999 -999  75.2  82.4 1011.7 -9.9 -9.999 -99.9 -99.99 -9.99
2018/08/18 08:18 EDT    3.23   3.37 -999 -999 -999 -99.9 -99.9 -999.9 -9.9 -9.999 -99.9 -99.99 -9.99
2018/08/18 08:24 EDT    3.11   3.26 -999 -999 -999  75.2  82.4 1011.6 -9.9 -9.999 -99.9 -99.99 -9.99
2018/08/18 08:30 EDT    3.00   3.13 -999 -999 -999  75.4  82.4 1011.7 -9.9 -9.999 -99.9 -99.99 -9.99
2018/08/18 08:36 EDT    2.89   3.04 -999 -999 -999  75.6  82.0 1011.8 -9.9 -9.999 -99.9 -99.99 -9.99
2018/08/18 08:42 EDT    2.78   2.92 -999 -999 -999  75.7  82.2 1011.7 -9.9 -9.999 -99.9 -99.99 -9.99
2018/08/18 08:48 EDT    2.68   2.82 -999 -999 -999  75.7  82.0 1011.7 -9.9 -9.999 -99.9 -99.99 -9.99
2018/08/18 08:54 EDT    2.57   2.69 -999 -999 -999  75.7  82.2 1011.7 -9.9 -9.999 -99.9 -99.99 -9.99
2018/08/18 09:00 EDT    2.47   2.61 -999 -999 -999  75.9  82.2 1011.7 -9.9 -9.999 -99.9 -99.99 -9.99
2018/08/18 09:06 EDT    2.37   2.49 -999 -999 -999  76.5  82.0 1011.7 -9.9 -9.999 -99.9 -99.99 -9.99
2018/08/18 09:12 EDT    2.28   2.41 -999 -999 -999  76.5  82.0 1011.6 -9.9 -9.999 -99.9 -99.99 -9.99
2018/08/18 09:18 EDT    2.18   2.30 -999 -999 -999  76.6  82.0 1011.7 -9.9 -9.999 -99.9 -99.99 -9.99
2018/08/18 09:24 EDT    2.09   2.22 -999 -999 -999  77.2  81.9 1011.6 -9.9 -9.999 -99.9 -99.99 -9.99
2018/08/18 09:30 EDT    2.00   2.12 -999 -999 -999  77.7  81.9 1011.5 -9.9 -9.999 -99.9 -99.99 -9.99
2018/08/18 09:36 EDT    1.91   2.04 -999 -999 -999  78.1  81.9 1011.5 -9.9 -9.999 -99.9 -99.99 -9.99
2018/08/18 09:42 EDT    1.82   1.96 -999 -999 -999  78.3  82.0 1011.4 -9.9 -9.999 -99.9 -99.99 -9.99
2018/08/18 09:48 EDT    1.74   1.88 -999 -999 -999  78.4  82.0 1011.4 -9.9 -9.999 -99.9 -99.99 -9.99
2018/08/18 09:54 EDT    1.65   1.80 -999 -999 -999  79.0  82.0 1011.4 -9.9 -9.999 -99.9 -99.99 -9.99
2018/08/18 10:00 EDT    1.57   1.73 -999 -999 -999  79.2  81.9 1011.5 -9.9 -9.999 -99.9 -99.99 -9.99
2018/08/18 10:06 EDT    1.48   1.64 -999 -999 -999  79.3  81.9 1011.4 -9.9 -9.999 -99.9 -99.99 -9.99
2018/08/18 10:12 EDT    1.40   1.58 -999 -999 -999  79.3  82.0 1011.4 -9.9 -9.999 -99.9 -99.99 -9.99
2018/08/18 10:18 EDT    1.32   1.50 -999 -999 -999  79.7  82.0 1011.4 -9.9 -9.999 -99.9 -99.99 -9.99
2018/08/18 10:24 EDT    1.24   1.44 -999 -999 -999  80.2  82.0 1011.3 -9.9 -9.999 -99.9 -99.99 -9.99
2018/08/18 10:30 EDT    1.16   1.35 -999 -999 -999  80.8  82.0 1011.3 -9.9 -9.999 -99.9 -99.99 -9.99
2018/08/18 10:36 EDT    1.08   1.28 -999 -999 -999  81.0  82.0 1011.3 -9.9 -9.999 -99.9 -99.99 -9.99
2018/08/18 10:42 EDT    1.01   1.20 -999 -999 -999  80.8  82.0 1011.3 -9.9 -9.999 -99.9 -99.99 -9.99
2018/08/18 10:48 EDT    0.93   1.13 -999 -999 -999  81.3  82.2 1011.3 -9.9 -9.999 -99.9 -99.99 -9.99
2018/08/18 10:54 EDT    0.86   1.06 -999 -999 -999  81.7  82.2 1011.2 -9.9 -9.999 -99.9 -99.99 -9.99
2018/08/18 11:00 EDT    0.79   0.99 -999 -999 -999  82.6  82.2 1011.1 -9.9 -9.999 -99.9 -99.99 -9.99
2018/08/18 11:06 EDT    0.72   0.91 -999 -999 -999  83.5  82.4 1011.2 -9.9 -9.999 -99.9 -99.99 -9.99
2018/08/18 11:12 EDT    0.66   0.85 -999 -999 -999  83.3  82.4 1011.2 -9.9 -9.999 -99.9 -99.99 -9.99
2018/08/18 11:18 EDT    0.60   0.79 -999 -999 -999  82.8  82.4 1011.1 -9.9 -9.999 -99.9 -99.99 -9.99
2018/08/18 11:24 EDT    0.54   0.72 -999 -999 -999  84.4  82.4 1011.0 -9.9 -9.999 -99.9 -99.99 -9.99
2018/08/18 11:30 EDT    0.49   0.69 -999 -999 -999  85.1  82.6 1011.0 -9.9 -9.999 -99.9 -99.99 -9.99
2018/08/18 11:36 EDT    0.45   0.64 -999 -999 -999  84.9  82.8 1010.9 -9.9 -9.999 -99.9 -99.99 -9.99
2018/08/18 11:42 EDT    0.41   0.48 -999 -999 -999  85.5  82.9 1010.9 -9.9 -9.999 -99.9 -99.99 -9.99
2018/08/18 11:48 EDT    0.39   0.58 -999 -999 -999  85.3  83.1 1010.8 -9.9 -9.999 -99.9 -99.99 -9.99
2018/08/18 11:54 EDT    0.37   0.52 -999 -999 -999  84.4  82.9 1010.9 -9.9 -9.999 -99.9 -99.99 -9.99
2018/08/18 12:00 EDT    0.36   0.51 -999 -999 -999  84.0  83.1 1010.7 -9.9 -9.999 -99.9 -99.99 -9.99
2018/08/18 12:06 EDT    0.36   0.47 -999 -999 -999  84.7  83.1 1010.7 -9.9 -9.999 -99.9 -99.99 -9.99
2018/08/18 12:12 EDT    0.37   0.51 -999 -999 -999  84.4  83.1 1010.6 -9.9 -9.999 -99.9 -99.99 -9.99
2018/08/18 12:18 EDT    0.39   0.53 -999 -999 -999  84.9  83.3 1010.5 -9.9 -9.999 -99.9 -99.99 -9.99
2018/08/18 12:24 EDT    0.42   0.58 -999 -999 -999  85.3  83.3 1010.4 -9.9 -9.999 -99.9 -99.99 -9.99
2018/08/18 12:30 EDT    0.46   0.64 -999 -999 -999  84.9  83.5 1010.4 -9.9 -9.999 -99.9 -99.99 -9.99
2018/08/18 12:36 EDT    0.51   0.71 -999 -999 -999  85.3  83.7 1010.3 -9.9 -9.999 -99.9 -99.99 -9.99
2018/08/18 12:42 EDT    0.57   1.00 -999 -999 -999  84.7  83.7 1010.3 -9.9 -9.999 -99.9 -99.99 -9.99
2018/08/18 12:48 EDT    0.64   0.84 -999 -999 -999  84.9  83.7 1010.2 -9.9 -9.999 -99.9 -99.99 -9.99
2018/08/18 12:54 EDT    0.73   0.96 -999 -999 -999  85.3  83.7 1010.2 -9.9 -9.999 -99.9 -99.99 -9.99
2018/08/18 13:00 EDT    0.82   1.10 -999 -999 -999  85.5  83.7 1010.2 -9.9 -9.999 -99.9 -99.99 -9.99
2018/08/18 13:06 EDT    0.92   1.06 -999 -999 -999  84.9  83.7 1010.2 -9.9 -9.999 -99.9 -99.99 -9.99
2018/08/18 13:12 EDT    1.03   1.34 -999 -999 -999  85.1  83.7 1010.1 -9.9 -9.999 -99.9 -99.99 -9.99
2018/08/18 13:18 EDT    1.15   1.47 -999 -999 -999  85.3  83.7 1010.1 -9.9 -9.999 -99.9 -99.99 -9.99
2018/08/18 13:24 EDT    1.27   1.57 -999 -999 -999  85.5  83.7 1010.2 -9.9 -9.999 -99.9 -99.99 -9.99
2018/08/18 13:30 EDT    1.40   1.80 -999 -999 -999  85.5  83.7 1010.2 -9.9 -9.999 -99.9 -99.99 -9.99
2018/08/18 13:36 EDT    1.54   1.91 -999 -999 -999  85.6  83.8 1010.1 -9.9 -9.999 -99.9 -99.99 -9.99
2018/08/18 13:42 EDT    1.67   2.09 -999 -999 -999  84.9  83.8 1010.1 -9.9 -9.999 -99.9 -99.99 -9.99
2018/08/18 13:48 EDT    1.82   2.28 -999 -999 -999  85.5  83.8 1010.0 -9.9 -9.999 -99.9 -99.99 -9.99
2018/08/18 13:54 EDT    1.96   2.44 -999 -999 -999  85.8  83.8 1010.0 -9.9 -9.999 -99.9 -99.99 -9.99
2018/08/18 14:00 EDT    2.10   2.53 -999 -999 -999  85.1  83.8 1010.0 -9.9 -9.999 -99.9 -99.99 -9.99
2018/08/18 14:06 EDT    2.25   2.71 -999 -999 -999  86.0  83.8 1009.9 -9.9 -9.999 -99.9 -99.99 -9.99
2018/08/18 14:12 EDT    2.39   2.84 -999 -999 -999  86.0  83.8 1009.8 -9.9 -9.999 -99.9 -99.99 -9.99
2018/08/18 14:18 EDT    2.54   3.02 -999 -999 -999  86.0  83.8 1009.7 -9.9 -9.999 -99.9 -99.99 -9.99
2018/08/18 14:24 EDT    2.68   3.19 -999 -999 -999  85.1  84.0 1009.7 -9.9 -9.999 -99.9 -99.99 -9.99
2018/08/18 14:30 EDT    2.82   3.32 -999 -999 -999  85.5  83.8 1009.5 -9.9 -9.999 -99.9 -99.99 -9.99
2018/08/18 14:36 EDT    2.96   3.44 -999 -999 -999  86.0  84.0 1009.4 -9.9 -9.999 -99.9 -99.99 -9.99
2018/08/18 14:42 EDT    3.10   3.57 -999 -999 -999  86.4  84.0 1009.3 -9.9 -9.999 -99.9 -99.99 -9.99
2018/08/18 14:48 EDT    3.24   3.71 -999 -999 -999  86.9  84.0 1009.2 -9.9 -9.999 -99.9 -99.99 -9.99
2018/08/18 14:54 EDT    3.37   3.90 -999 -999 -999  87.1  84.0 1009.2 -9.9 -9.999 -99.9 -99.99 -9.99
2018/08/18 15:00 EDT    3.50   4.02 -999 -999 -999  87.4  84.0 1009.1 -9.9 -9.999 -99.9 -99.99 -9.99
2018/08/18 15:06 EDT    3.62   4.15 -999 -999 -999  87.6  84.0 1009.1 -9.9 -9.999 -99.9 -99.99 -9.99
2018/08/18 15:12 EDT    3.75   4.27 -999 -999 -999  87.1  84.0 1009.0 -9.9 -9.999 -99.9 -99.99 -9.99
2018/08/18 15:18 EDT    3.87   4.42 -999 -999 -999  86.5  84.0 1009.0 -9.9 -9.999 -99.9 -99.99 -9.99
2018/08/18 15:24 EDT    3.99   4.53 -999 -999 -999  86.7  84.0 1008.9 -9.9 -9.999 -99.9 -99.99 -9.99
2018/08/18 15:30 EDT    4.11   4.68 -999 -999 -999  85.8  84.0 1008.9 -9.9 -9.999 -99.9 -99.99 -9.99
2018/08/18 15:36 EDT    4.23   4.79 -999 -999 -999  85.5  84.0 1008.8 -9.9 -9.999 -99.9 -99.99 -9.99
2018/08/18 15:42 EDT    4.34   4.92 -999 -999 -999  85.1  84.0 1008.8 -9.9 -9.999 -99.9 -99.99 -9.99
2018/08/18 15:48 EDT    4.45   5.04 -999 -999 -999  84.9  84.0 1008.7 -9.9 -9.999 -99.9 -99.99 -9.99
2018/08/18 15:54 EDT    4.56   5.17 -999 -999 -999  85.1  84.0 1008.6 -9.9 -9.999 -99.9 -99.99 -9.99
2018/08/18 16:00 EDT    4.67   5.25 -999 -999 -999  85.3  84.0 1008.5 -9.9 -9.999 -99.9 -99.99 -9.99
2018/08/18 16:06 EDT    4.78   5.38 -999 -999 -999  85.6  84.0 1008.4 -9.9 -9.999 -99.9 -99.99 -9.99
2018/08/18 16:12 EDT    4.88   5.48 -999 -999 -999  86.0  84.0 1008.3 -9.9 -9.999 -99.9 -99.99 -9.99
2018/08/18 16:18 EDT    4.98   5.58 -999 -999 -999  86.0  84.2 1008.4 -9.9 -9.999 -99.9 -99.99 -9.99
2018/08/18 16:24 EDT    5.08   5.66 -999 -999 -999  86.2  84.2 1008.4 -9.9 -9.999 -99.9 -99.99 -9.99
2018/08/18 16:30 EDT    5.17   5.76 -999 -999 -999  86.0  84.2 1008.3 -9.9 -9.999 -99.9 -99.99 -9.99
2018/08/18 16:36 EDT    5.27   5.84 -999 -999 -999  86.0  84.2 1008.3 -9.9 -9.999 -99.9 -99.99 -9.99
2018/08/18 16:42 EDT    5.35   5.91 -999 -999 -999  85.5  84.2 1008.3 -9.9 -9.999 -99.9 -99.99 -9.99
2018/08/18 16:48 EDT    5.44   5.97 -999 -999 -999  85.1  84.2 1008.3 -9.9 -9.999 -99.9 -99.99 -9.99
2018/08/18 16:54 EDT    5.52   6.04 -999 -999 -999  84.6  84.2 1008.3 -9.9 -9.999 -99.9 -99.99 -9.99
2018/08/18 17:00 EDT    5.59   6.10 -999 -999 -999  84.4  84.2 1008.2 -9.9 -9.999 -99.9 -99.99 -9.99
2018/08/18 17:06 EDT    5.66   6.15 -999 -999 -999  84.4  84.2 1008.3 -9.9 -9.999 -99.9 -99.99 -9.99
2018/08/18 17:12 EDT    5.72   6.20 -999 -999 -999  84.4  84.2 1008.2 -9.9 -9.999 -99.9 -99.99 -9.99
2018/08/18 17:18 EDT    5.77   6.25 -999 -999 -999  84.4  84.2 1008.1 -9.9 -9.999 -99.9 -99.99 -9.99
2018/08/18 17:24 EDT    5.82   6.29 -999 -999 -999  84.6  84.2 1008.1 -9.9 -9.999 -99.9 -99.99 -9.99
2018/08/18 17:30 EDT    5.86   6.32 -999 -999 -999  84.7  84.2 1008.2 -9.9 -9.999 -99.9 -99.99 -9.99
2018/08/18 17:36 EDT    5.89   6.35 -999 -999 -999  84.9  84.2 1008.2 -9.9 -9.999 -99.9 -99.99 -9.99
2018/08/18 17:42 EDT    5.92   6.37 -999 -999 -999  84.6  84.0 1008.2 -9.9 -9.999 -99.9 -99.99 -9.99
2018/08/18 17:48 EDT    5.94 -99.99 -999 -999 -999 -99.9 -99.9 -999.9 -9.9 -9.999 -99.9 -99.99 -9.99
2018/08/18 17:54 EDT    5.95 -99.99 -999 -999 -999 -99.9 -99.9 -999.9 -9.9 -9.999 -99.9 -99.99 -9.99
2018/08/18 18:00 EDT    5.95 -99.99 -999 -999 -999 -99.9 -99.9 -999.9 -9.9 -9.999 -99.9 -99.99 -9.99
2018/08/18 18:06 EDT    5.94 -99.99 -999 -999 -999 -99.9 -99.9 -999.9 -9.9 -9.999 -99.9 -99.99 -9.99
2018/08/18 18:12 EDT    5.93 -99.99 -999 -999 -999 -99.9 -99.9 -999.9 -9.9 -9.999 -99.9 -99.99 -9.99
2018/08/18 18:18 EDT    5.90 -99.99 -999 -999 -999 -99.9 -99.9 -999.9 -9.9 -9.999 -99.9 -99.99 -9.99
2018/08/18 18:24 EDT    5.87 -99.99 -999 -999 -999 -99.9 -99.9 -999.9 -9.9 -9.999 -99.9 -99.99 -9.99
2018/08/18 18:30 EDT    5.84 -99.99 -999 -999 -999 -99.9 -99.9 -999.9 -9.9 -9.999 -99.9 -99.99 -9.99
2018/08/18 18:36 EDT    5.79 -99.99 -999 -999 -999 -99.9 -99.9 -999.9 -9.9 -9.999 -99.9 -99.99 -9.99
2018/08/18 18:42 EDT    5.74 -99.99 -999 -999 -999 -99.9 -99.9 -999.9 -9.9 -9.999 -99.9 -99.99 -9.99
2018/08/18 18:48 EDT    5.69 -99.99 -999 -999 -999 -99.9 -99.9 -999.9 -9.9 -9.999 -99.9 -99.99 -9.99
2018/08/18 18:54 EDT    5.62 -99.99 -999 -999 -999 -99.9 -99.9 -999.9 -9.9 -9.999 -99.9 -99.99 -9.99
2018/08/18 19:00 EDT    5.55 -99.99 -999 -999 -999 -99.9 -99.9 -999.9 -9.9 -9.999 -99.9 -99.99 -9.99
2018/08/18 19:06 EDT    5.48 -99.99 -999 -999 -999 -99.9 -99.9 -999.9 -9.9 -9.999 -99.9 -99.99 -9.99
2018/08/18 19:12 EDT    5.40 -99.99 -999 -999 -999 -99.9 -99.9 -999.9 -9.9 -9.999 -99.9 -99.99 -9.99
2018/08/18 19:18 EDT    5.32 -99.99 -999 -999 -999 -99.9 -99.9 -999.9 -9.9 -9.999 -99.9 -99.99 -9.99
2018/08/18 19:24 EDT    5.23 -99.99 -999 -999 -999 -99.9 -99.9 -999.9 -9.9 -9.999 -99.9 -99.99 -9.99
2018/08/18 19:30 EDT    5.14 -99.99 -999 -999 -999 -99.9 -99.9 -999.9 -9.9 -9.999 -99.9 -99.99 -9.99
2018/08/18 19:36 EDT    5.04 -99.99 -999 -999 -999 -99.9 -99.9 -999.9 -9.9 -9.999 -99.9 -99.99 -9.99
2018/08/18 19:42 EDT    4.94 -99.99 -999 -999 -999 -99.9 -99.9 -999.9 -9.9 -9.999 -99.9 -99.99 -9.99
2018/08/18 19:48 EDT    4.84 -99.99 -999 -999 -999 -99.9 -99.9 -999.9 -9.9 -9.999 -99.9 -99.99 -9.99
2018/08/18 19:54 EDT    4.74 -99.99 -999 -999 -999 -99.9 -99.9 -999.9 -9.9 -9.999 -99.9 -99.99 -9.99
2018/08/18 20:00 EDT    4.63 -99.99 -999 -999 -999 -99.9 -99.9 -999.9 -9.9 -9.999 -99.9 -99.99 -9.99
2018/08/18 20:06 EDT    4.53 -99.99 -999 -999 -999 -99.9 -99.9 -999.9 -9.9 -9.999 -99.9 -99.99 -9.99
2018/08/18 20:12 EDT    4.42 -99.99 -999 -999 -999 -99.9 -99.9 -999.9 -9.9 -9.999 -99.9 -99.99 -9.99
2018/08/18 20:18 EDT    4.31 -99.99 -999 -999 -999 -99.9 -99.9 -999.9 -9.9 -9.999 -99.9 -99.99 -9.99
2018/08/18 20:24 EDT    4.20 -99.99 -999 -999 -999 -99.9 -99.9 -999.9 -9.9 -9.999 -99.9 -99.99 -9.99
2018/08/18 20:30 EDT    4.10 -99.99 -999 -999 -999 -99.9 -99.9 -999.9 -9.9 -9.999 -99.9 -99.99 -9.99
2018/08/18 20:36 EDT    3.99 -99.99 -999 -999 -999 -99.9 -99.9 -999.9 -9.9 -9.999 -99.9 -99.99 -9.99
2018/08/18 20:42 EDT    3.88 -99.99 -999 -999 -999 -99.9 -99.9 -999.9 -9.9 -9.999 -99.9 -99.99 -9.99
2018/08/18 20:48 EDT    3.77 -99.99 -999 -999 -999 -99.9 -99.9 -999.9 -9.9 -9.999 -99.9 -99.99 -9.99
2018/08/18 20:54 EDT    3.67 -99.99 -999 -999 -999 -99.9 -99.9 -999.9 -9.9 -9.999 -99.9 -99.99 -9.99
2018/08/18 21:00 EDT    3.56 -99.99 -999 -999 -999 -99.9 -99.9 -999.9 -9.9 -9.999 -99.9 -99.99 -9.99
2018/08/18 21:06 EDT    3.46 -99.99 -999 -999 -999 -99.9 -99.9 -999.9 -9.9 -9.999 -99.9 -99.99 -9.99
2018/08/18 21:12 EDT    3.36 -99.99 -999 -999 -999 -99.9 -99.9 -999.9 -9.9 -9.999 -99.9 -99.99 -9.99
2018/08/18 21:18 EDT    3.26 -99.99 -999 -999 -999 -99.9 -99.9 -999.9 -9.9 -9.999 -99.9 -99.99 -9.99
2018/08/18 21:24 EDT    3.16 -99.99 -999 -999 -999 -99.9 -99.9 -999.9 -9.9 -9.999 -99.9 -99.99 -9.99
2018/08/18 21:30 EDT    3.06 -99.99 -999 -999 -999 -99.9 -99.9 -999.9 -9.9 -9.999 -99.9 -99.99 -9.99
2018/08/18 21:36 EDT    2.96 -99.99 -999 -999 -999 -99.9 -99.9 -999.9 -9.9 -9.999 -99.9 -99.99 -9.99
2018/08/18 21:42 EDT    2.87 -99.99 -999 -999 -999 -99.9 -99.9 -999.9 -9.9 -9.999 -99.9 -99.99 -9.99
2018/08/18 21:48 EDT    2.78 -99.99 -999 -999 -999 -99.9 -99.9 -999.9 -9.9 -9.999 -99.9 -99.99 -9.99
2018/08/18 21:54 EDT    2.68 -99.99 -999 -999 -999 -99.9 -99.9 -999.9 -9.9 -9.999 -99.9 -99.99 -9.99
2018/08/18 22:00 EDT    2.59 -99.99 -999 -999 -999 -99.9 -99.9 -999.9 -9.9 -9.999 -99.9 -99.99 -9.99
2018/08/18 22:06 EDT    2.50 -99.99 -999 -999 -999 -99.9 -99.9 -999.9 -9.9 -9.999 -99.9 -99.99 -9.99
2018/08/18 22:12 EDT    2.41 -99.99 -999 -999 -999 -99.9 -99.9 -999.9 -9.9 -9.999 -99.9 -99.99 -9.99
2018/08/18 22:18 EDT    2.32 -99.99 -999 -999 -999 -99.9 -99.9 -999.9 -9.9 -9.999 -99.9 -99.99 -9.99
2018/08/18 22:24 EDT    2.23 -99.99 -999 -999 -999 -99.9 -99.9 -999.9 -9.9 -9.999 -99.9 -99.99 -9.99
2018/08/18 22:30 EDT    2.14 -99.99 -999 -999 -999 -99.9 -99.9 -999.9 -9.9 -9.999 -99.9 -99.99 -9.99
2018/08/18 22:36 EDT    2.05 -99.99 -999 -999 -999 -99.9 -99.9 -999.9 -9.9 -9.999 -99.9 -99.99 -9.99
2018/08/18 22:42 EDT    1.96 -99.99 -999 -999 -999 -99.9 -99.9 -999.9 -9.9 -9.999 -99.9 -99.99 -9.99
2018/08/18 22:48 EDT    1.87 -99.99 -999 -999 -999 -99.9 -99.9 -999.9 -9.9 -9.999 -99.9 -99.99 -9.99
2018/08/18 22:54 EDT    1.78 -99.99 -999 -999 -999 -99.9 -99.9 -999.9 -9.9 -9.999 -99.9 -99.99 -9.99
2018/08/18 23:00 EDT    1.70 -99.99 -999 -999 -999 -99.9 -99.9 -999.9 -9.9 -9.999 -99.9 -99.99 -9.99
2018/08/18 23:06 EDT    1.61 -99.99 -999 -999 -999 -99.9 -99.9 -999.9 -9.9 -9.999 -99.9 -99.99 -9.99
2018/08/18 23:12 EDT    1.52 -99.99 -999 -999 -999 -99.9 -99.9 -999.9 -9.9 -9.999 -99.9 -99.99 -9.99
2018/08/18 23:18 EDT    1.43 -99.99 -999 -999 -999 -99.9 -99.9 -999.9 -9.9 -9.999 -99.9 -99.99 -9.99
2018/08/18 23:24 EDT    1.34 -99.99 -999 -999 -999 -99.9 -99.9 -999.9 -9.9 -9.999 -99.9 -99.99 -9.99
2018/08/18 23:30 EDT    1.26 -99.99 -999 -999 -999 -99.9 -99.9 -999.9 -9.9 -9.999 -99.9 -99.99 -9.99
2018/08/18 23:36 EDT    1.18 -99.99 -999 -999 -999 -99.9 -99.9 -999.9 -9.9 -9.999 -99.9 -99.99 -9.99
2018/08/18 23:42 EDT    1.10 -99.99 -999 -999 -999 -99.9 -99.9 -999.9 -9.9 -9.999 -99.9 -99.99 -9.99
2018/08/18 23:48 EDT    1.02 -99.99 -999 -999 -999 -99.9 -99.9 -999.9 -9.9 -9.999 -99.9 -99.99 -9.99

Revised: 10/15/2013
NOAA / National Ocean Service
Web site owner: Center for Operational Oceanographic Products and Services